Time;durP1;ratioP1;P1;durP2;ratioP2;P2;SDS_P1;SDS_P2;PMS_P1;PMS_P2;Temp;Humidity;BMP_temperature;BMP_pressure;BME280_temperature;BME280_humidity;BME280_pressure;Samples;Min_cycle;Max_cycle;Signal;HPM_P1;HPM_P2
2022/11/03 00:01:07;;;;;;;34.20;19.53;;;9.40;99.90;;;;;;4990287;28;20207;-67
2022/11/03 00:03:35;;;;;;;39.53;21.03;;;9.40;99.90;;;;;;4989954;28;20219;-68
2022/11/03 00:06:06;;;;;;;39.87;22.00;;;9.40;99.90;;;;;;4990424;28;20214;-69
2022/11/03 00:08:38;;;;;;;37.73;21.50;;;9.40;99.90;;;;;;4990037;28;20223;-68
2022/11/03 00:11:07;;;;;;;43.30;22.27;;;9.40;99.90;;;;;;5001197;28;20584;-69
2022/11/03 00:13:35;;;;;;;42.67;22.63;;;9.40;99.90;;;;;;5026172;28;20214;-68
2022/11/03 00:16:02;;;;;;;39.87;21.73;;;9.40;99.90;;;;;;4986832;28;20207;-68
2022/11/03 00:18:28;;;;;;;39.73;21.73;;;9.40;99.90;;;;;;4993168;28;20203;-68
2022/11/03 00:20:58;;;;;;;42.70;24.17;;;9.40;99.90;;;;;;4990768;28;20602;-68
2022/11/03 00:23:27;;;;;;;36.50;22.00;;;9.40;99.90;;;;;;4989643;28;20234;-66
2022/11/03 00:25:53;;;;;;;40.43;22.47;;;9.40;99.90;;;;;;4989532;28;20315;-68
2022/11/03 00:28:20;;;;;;;38.03;22.10;;;9.40;99.90;;;;;;4990976;28;20237;-68
2022/11/03 00:30:47;;;;;;;39.33;21.70;;;9.40;99.90;;;;;;4990141;28;20207;-67
2022/11/03 00:33:14;;;;;;;36.10;23.00;;;9.40;99.90;;;;;;4989760;28;20213;-66
2022/11/03 00:35:40;;;;;;;39.97;23.90;;;9.40;99.90;;;;;;4989999;28;20212;-68
2022/11/03 00:38:08;;;;;;;35.13;22.23;;;9.40;99.90;;;;;;4989429;28;20203;-67
2022/11/03 00:40:35;;;;;;;39.03;23.07;;;9.40;99.90;;;;;;4990834;28;20213;-68
2022/11/03 00:43:02;;;;;;;40.90;21.73;;;9.40;99.90;;;;;;4989684;28;20661;-68
2022/11/03 00:45:29;;;;;;;38.30;22.20;;;9.40;99.90;;;;;;4989328;28;20665;-67
2022/11/03 00:50:41;;;;;;;37.50;22.20;;;9.50;99.90;;;;;;4989497;28;20198;-69
2022/11/03 00:53:09;;;;;;;40.93;23.20;;;9.50;99.90;;;;;;4989144;28;20253;-68
2022/11/03 00:55:36;;;;;;;39.03;23.50;;;9.40;99.90;;;;;;4989474;28;20215;-68
2022/11/03 00:58:03;;;;;;;36.93;22.27;;;9.40;99.90;;;;;;4989451;28;20210;-68
2022/11/03 01:00:29;;;;;;;41.23;24.50;;;9.40;99.90;;;;;;4990939;28;20211;-67
2022/11/03 01:02:56;;;;;;;42.13;22.87;;;9.40;99.90;;;;;;4989655;28;20211;-69
2022/11/03 01:08:09;;;;;;;39.90;23.20;;;9.40;99.90;;;;;;4988822;28;20218;-68
2022/11/03 01:11:42;;;;;;;38.60;22.37;;;9.40;99.90;;;;;;5007036;28;20211;-68
2022/11/03 01:13:25;;;;;;;43.03;23.53;;;9.40;99.90;;;;;;5008278;28;20692;-67
2022/11/03 01:15:56;;;;;;;39.20;23.23;;;9.50;99.90;;;;;;5008767;28;20683;-68
2022/11/03 01:18:22;;;;;;;37.60;22.53;;;9.50;99.90;;;;;;5007791;28;20198;-67
2022/11/03 01:20:55;;;;;;;40.63;23.27;;;9.50;99.90;;;;;;4989384;28;20204;-67
2022/11/03 01:23:23;;;;;;;39.20;22.40;;;9.50;99.90;;;;;;4990127;28;20633;-68
2022/11/03 01:25:50;;;;;;;40.27;22.37;;;9.50;99.90;;;;;;4992680;28;20690;-67
2022/11/03 01:28:17;;;;;;;36.47;21.80;;;9.60;99.90;;;;;;4990834;28;20224;-68
2022/11/03 01:30:44;;;;;;;38.57;22.83;;;9.60;99.90;;;;;;5004403;28;20233;-67
2022/11/03 01:33:10;;;;;;;40.37;23.00;;;9.60;99.90;;;;;;5011727;28;20206;-68
2022/11/03 01:35:37;;;;;;;44.57;24.40;;;9.60;99.90;;;;;;5012090;28;20217;-68
2022/11/03 01:38:04;;;;;;;40.33;23.80;;;9.60;99.90;;;;;;5009400;28;20207;-67
2022/11/03 01:40:32;;;;;;;38.23;22.30;;;9.60;99.90;;;;;;5011953;28;20203;-66
2022/11/03 01:43:17;;;;;;;42.23;24.10;;;9.60;99.90;;;;;;5011861;28;20228;-67
2022/11/03 01:45:44;;;;;;;41.47;23.07;;;9.60;99.90;;;;;;5011556;28;20195;-67
2022/11/03 01:48:12;;;;;;;41.90;22.83;;;9.60;99.90;;;;;;5000936;28;20246;-69
2022/11/03 01:50:42;;;;;;;40.50;23.73;;;9.60;99.90;;;;;;4992309;28;20203;-67
2022/11/03 01:53:09;;;;;;;37.47;21.63;;;9.60;99.90;;;;;;4991931;28;20210;-67
2022/11/03 01:55:39;;;;;;;41.97;23.40;;;9.60;99.90;;;;;;4992247;28;20683;-67
2022/11/03 01:58:10;;;;;;;37.47;22.53;;;9.60;99.90;;;;;;4998095;28;20232;-68
2022/11/03 02:00:37;;;;;;;39.63;23.87;;;9.60;99.90;;;;;;5011722;28;20346;-67
2022/11/03 02:03:05;;;;;;;41.93;23.93;;;9.70;99.90;;;;;;5011445;28;20234;-67
2022/11/03 02:05:32;;;;;;;40.43;23.73;;;9.70;99.90;;;;;;5011747;28;20203;-66
2022/11/03 02:08:03;;;;;;;46.00;23.93;;;9.70;99.90;;;;;;5004152;28;20223;-67
2022/11/03 02:10:30;;;;;;;41.30;22.90;;;9.70;99.90;;;;;;4991986;28;20191;-67
2022/11/03 02:12:58;;;;;;;43.73;23.27;;;9.70;99.90;;;;;;4991716;28;20601;-67
2022/11/03 02:15:26;;;;;;;41.27;23.33;;;9.80;99.90;;;;;;4992123;28;20554;-67
2022/11/03 02:17:55;;;;;;;41.23;23.80;;;9.70;99.90;;;;;;4998438;28;20221;-67
2022/11/03 02:20:26;;;;;;;41.63;23.40;;;9.80;99.90;;;;;;4991546;28;20284;-68
2022/11/03 02:23:09;;;;;;;39.10;22.63;;;9.80;99.90;;;;;;4991961;28;20192;-67
2022/11/03 02:25:42;;;;;;;45.20;25.40;;;9.80;99.90;;;;;;4992092;28;20538;-67
2022/11/03 02:28:10;;;;;;;44.93;24.77;;;9.80;99.90;;;;;;4999879;28;20219;-67
2022/11/03 02:30:42;;;;;;;49.83;24.67;;;9.70;99.90;;;;;;5011307;28;20235;-67
2022/11/03 02:33:17;;;;;;;51.40;25.73;;;9.70;99.90;;;;;;5010804;28;20195;-66
2022/11/03 02:35:50;;;;;;;52.47;25.27;;;9.70;99.90;;;;;;5011471;28;20195;-67
2022/11/03 02:38:20;;;;;;;52.10;26.23;;;9.70;99.90;;;;;;5001512;28;20202;-67
2022/11/03 02:40:53;;;;;;;58.90;26.20;;;9.70;99.90;;;;;;4991340;28;20188;-67
2022/11/03 02:43:22;;;;;;;60.53;27.20;;;9.70;99.90;;;;;;4991306;28;20194;-67
2022/11/03 02:45:50;;;;;;;68.03;29.30;;;9.80;99.90;;;;;;4991688;28;20219;-68
2022/11/03 02:48:18;;;;;;;63.00;27.80;;;9.80;99.90;;;;;;4999914;28;20234;-67
2022/11/03 02:50:47;;;;;;;71.30;28.60;;;9.80;99.90;;;;;;5010980;28;20217;-67
2022/11/03 02:53:15;;;;;;;68.40;28.10;;;9.80;99.90;;;;;;5004661;28;20211;-68
2022/11/03 02:55:48;;;;;;;74.77;28.43;;;9.80;99.90;;;;;;4991142;28;20215;-67
2022/11/03 06:58:41;;;;;;;28.58;15.48;;;9.80;99.90;;;;;;5048340;27;1921183;-67
2022/11/03 07:01:14;;;;;;;29.30;15.57;;;10.70;99.90;;;;;;5088654;28;20302;-68
2022/11/03 07:03:41;;;;;;;26.83;15.87;;;10.80;99.90;;;;;;5089416;28;20192;-67
2022/11/03 07:06:17;;;;;;;26.30;15.47;;;10.90;99.90;;;;;;5088787;28;20223;-67
2022/11/03 07:08:46;;;;;;;25.17;14.83;;;11.00;99.90;;;;;;5088859;28;20356;-68
2022/11/03 07:11:17;;;;;;;27.37;14.53;;;11.00;99.90;;;;;;5087760;28;20581;-67
2022/11/03 07:13:47;;;;;;;30.53;15.43;;;11.10;99.90;;;;;;5088212;28;20195;-66
2022/11/03 07:16:19;;;;;;;26.83;15.53;;;11.10;99.90;;;;;;5084113;28;20275;-69
2022/11/03 07:18:47;;;;;;;26.97;14.73;;;11.20;99.90;;;;;;5068604;28;20272;-68
2022/11/03 07:21:30;;;;;;;34.20;15.60;;;11.20;99.90;;;;;;5068439;28;20212;-67
2022/11/03 07:23:59;;;;;;;24.70;14.17;;;11.30;99.90;;;;;;5068460;28;20645;-71
2022/11/03 07:26:26;;;;;;;31.40;14.87;;;11.30;99.90;;;;;;5066042;28;20199;-69
2022/11/03 07:28:55;;;;;;;24.57;15.20;;;11.30;99.90;;;;;;5067341;28;20209;-67
2022/11/03 07:31:24;;;;;;;27.80;15.30;;;11.30;99.90;;;;;;5066652;28;20201;-70
2022/11/03 07:33:56;;;;;;;26.10;14.30;;;11.40;99.90;;;;;;5067079;28;20211;-68
2022/11/03 07:36:25;;;;;;;31.90;15.33;;;11.40;99.90;;;;;;5067036;28;20213;-65
2022/11/03 07:38:55;;;;;;;29.30;15.60;;;11.40;99.90;;;;;;5066597;28;20197;-67
2022/11/03 07:41:26;;;;;;;29.73;15.27;;;11.40;99.90;;;;;;5067798;28;20243;-68
2022/11/03 07:43:57;;;;;;;27.43;14.07;;;11.40;99.90;;;;;;5068103;28;20208;-68
2022/11/03 07:46:24;;;;;;;27.90;14.57;;;11.40;99.90;;;;;;5067763;28;20569;-66
2022/11/03 07:48:55;;;;;;;27.37;15.30;;;11.50;99.90;;;;;;5067352;28;20746;-67
2022/11/03 07:51:25;;;;;;;28.67;15.33;;;11.50;99.90;;;;;;5066181;28;20196;-68
2022/11/03 07:53:54;;;;;;;23.03;13.73;;;11.60;99.90;;;;;;5067727;28;20201;-68
2022/11/03 07:56:22;;;;;;;28.43;14.23;;;11.60;99.90;;;;;;5067706;28;20211;-69
2022/11/03 07:58:51;;;;;;;29.67;15.10;;;11.60;99.90;;;;;;5058082;28;20327;-67
2022/11/03 08:01:26;;;;;;;21.77;13.47;;;11.60;99.90;;;;;;5051021;28;20559;-69
2022/11/03 08:03:59;;;;;;;25.67;13.23;;;11.60;99.90;;;;;;5054645;28;20201;-69
2022/11/03 08:06:25;;;;;;;28.40;14.07;;;11.60;99.90;;;;;;5054661;28;20212;-71
2022/11/03 08:08:52;;;;;;;27.87;13.53;;;11.60;99.90;;;;;;5054188;28;20237;-71
2022/11/03 08:11:21;;;;;;;23.77;12.93;;;11.60;99.90;;;;;;5052755;28;20212;-71
2022/11/03 08:13:48;;;;;;;22.47;12.43;;;11.70;99.90;;;;;;5054711;28;20663;-71
2022/11/03 08:16:15;;;;;;;25.30;14.13;;;11.70;99.90;;;;;;5054588;28;20812;-69
2022/11/03 08:18:43;;;;;;;25.10;13.17;;;11.70;99.90;;;;;;5054481;28;20205;-69
2022/11/03 08:21:10;;;;;;;34.67;13.83;;;11.80;99.90;;;;;;5053396;28;20213;-68
2022/11/03 08:23:38;;;;;;;22.77;12.80;;;11.80;99.90;;;;;;5054157;28;20212;-67
2022/11/03 08:26:05;;;;;;;25.10;13.67;;;11.80;99.90;;;;;;5053796;28;20209;-68
2022/11/03 08:28:32;;;;;;;20.50;12.13;;;11.90;99.90;;;;;;5053484;28;20565;-66
2022/11/03 08:31:00;;;;;;;21.10;12.37;;;11.90;99.90;;;;;;5052299;28;20202;-67
2022/11/03 08:33:27;;;;;;;22.07;12.00;;;11.90;99.90;;;;;;5053667;28;20205;-68
2022/11/03 08:35:55;;;;;;;20.27;11.87;;;11.90;99.90;;;;;;5053604;28;20213;-67
2022/11/03 08:38:22;;;;;;;22.43;11.27;;;12.00;99.90;;;;;;5053536;28;20231;-67
2022/11/03 08:40:49;;;;;;;18.90;11.33;;;12.00;99.90;;;;;;5052799;28;20201;-66
2022/11/03 08:43:16;;;;;;;19.37;10.60;;;12.00;99.90;;;;;;5053093;28;20209;-68
2022/11/03 08:45:42;;;;;;;20.70;11.13;;;12.00;99.90;;;;;;5053836;28;20215;-68
2022/11/03 08:48:09;;;;;;;22.10;10.47;;;11.90;99.90;;;;;;5053627;28;20208;-68
2022/11/03 08:50:36;;;;;;;21.93;10.60;;;11.90;99.90;;;;;;5052584;28;20213;-67
2022/11/03 08:53:04;;;;;;;20.90;9.87;;;11.90;99.90;;;;;;5053779;28;20575;-68
2022/11/03 08:55:31;;;;;;;18.77;10.20;;;11.90;99.90;;;;;;5053310;28;20205;-66
2022/11/03 08:57:58;;;;;;;16.90;10.17;;;11.90;99.90;;;;;;5052818;28;20252;-66
2022/11/03 09:00:24;;;;;;;22.80;10.63;;;11.90;99.90;;;;;;5052612;28;20212;-68
2022/11/03 09:02:51;;;;;;;19.77;10.10;;;11.90;99.90;;;;;;5053010;28;20209;-66
2022/11/03 09:05:18;;;;;;;18.93;9.43;;;11.90;99.90;;;;;;5053463;28;20201;-68
2022/11/03 09:07:45;;;;;;;18.37;9.63;;;12.00;99.90;;;;;;5053144;28;20197;-68
2022/11/03 09:10:13;;;;;;;17.73;10.27;;;12.00;99.90;;;;;;5051470;28;20208;-67
2022/11/03 09:12:40;;;;;;;15.57;9.50;;;12.00;99.90;;;;;;5052926;28;20224;-67
2022/11/03 09:15:07;;;;;;;17.33;9.40;;;12.10;99.90;;;;;;5053706;28;20205;-67
2022/11/03 09:17:34;;;;;;;22.43;10.07;;;12.10;99.90;;;;;;5053138;28;20229;-66
2022/11/03 09:20:01;;;;;;;20.20;10.13;;;12.10;99.90;;;;;;5051602;28;20209;-66
2022/11/03 09:22:28;;;;;;;18.23;10.30;;;12.10;99.90;;;;;;5051611;28;20241;-67
2022/11/03 09:24:55;;;;;;;23.43;9.47;;;12.10;99.90;;;;;;5052140;28;20639;-66
2022/11/03 09:27:23;;;;;;;18.17;9.67;;;12.20;99.90;;;;;;5052587;28;20232;-66
2022/11/03 09:29:50;;;;;;;15.97;10.03;;;12.20;99.90;;;;;;5051424;28;20232;-67
2022/11/03 09:32:17;;;;;;;19.27;10.77;;;12.20;99.90;;;;;;5052754;28;20209;-67
2022/11/03 09:34:45;;;;;;;17.17;9.60;;;12.20;99.90;;;;;;5052232;28;20296;-66
2022/11/03 09:37:11;;;;;;;17.43;10.70;;;12.20;99.90;;;;;;5052579;28;20237;-68
2022/11/03 09:39:38;;;;;;;19.53;11.07;;;12.20;99.90;;;;;;5051620;28;20216;-66
2022/11/03 09:42:06;;;;;;;18.63;10.67;;;12.20;99.90;;;;;;5051920;28;20215;-67
2022/11/03 09:44:36;;;;;;;16.33;9.93;;;12.20;99.90;;;;;;5051514;28;20212;-66
2022/11/03 09:47:04;;;;;;;14.67;9.43;;;12.10;99.90;;;;;;5032336;28;20202;-67
2022/11/03 09:49:33;;;;;;;16.13;9.87;;;12.10;99.90;;;;;;5032576;28;20208;-67
2022/11/03 09:52:00;;;;;;;14.37;8.10;;;12.10;99.90;;;;;;5032393;28;20202;-66
2022/11/03 09:54:28;;;;;;;13.43;8.43;;;12.10;99.90;;;;;;5032537;28;20212;-69
2022/11/03 09:56:57;;;;;;;12.40;7.70;;;12.10;99.90;;;;;;5031979;28;20229;-66
2022/11/03 09:59:24;;;;;;;10.43;6.73;;;12.00;99.90;;;;;;5031927;28;20202;-66
2022/11/03 10:01:53;;;;;;;10.57;6.60;;;12.00;99.90;;;;;;5032095;28;20210;-68
2022/11/03 10:04:26;;;;;;;9.40;6.13;;;11.90;99.90;;;;;;5032663;28;20206;-66
2022/11/03 10:06:54;;;;;;;10.27;6.47;;;11.90;99.90;;;;;;5031947;28;20193;-67
2022/11/03 10:09:22;;;;;;;7.83;5.30;;;11.90;99.90;;;;;;5032540;28;20573;-68
2022/11/03 10:11:50;;;;;;;9.10;5.40;;;11.80;99.90;;;;;;5032026;28;20735;-66
2022/11/03 10:14:18;;;;;;;8.47;4.67;;;11.80;99.90;;;;;;5043310;28;20202;-67
2022/11/03 10:16:50;;;;;;;8.00;4.57;;;11.70;99.90;;;;;;5051211;28;20227;-67
2022/11/03 15:04:12;;;;;;;7.20;4.57;;;9.40;99.90;;;;;;5105341;27;20615;-66
2022/11/03 15:06:39;;;;;;;5.23;4.73;;;9.90;99.90;;;;;;5088837;28;20204;-66
2022/11/03 15:09:07;;;;;;;6.47;4.50;;;9.90;99.90;;;;;;5089572;28;20307;-67
2022/11/03 15:11:34;;;;;;;5.97;4.77;;;9.90;99.90;;;;;;5088124;28;20208;-67
2022/11/03 15:14:02;;;;;;;6.60;4.40;;;9.90;99.90;;;;;;5089657;28;20661;-67
2022/11/03 15:16:29;;;;;;;6.37;4.83;;;10.00;99.90;;;;;;5089246;28;20259;-67
2022/11/03 15:18:56;;;;;;;6.87;5.27;;;10.00;99.90;;;;;;5089384;28;20207;-68
2022/11/03 15:21:24;;;;;;;7.53;5.30;;;10.00;99.90;;;;;;5089162;28;20225;-67
2022/11/03 15:23:50;;;;;;;9.37;6.00;;;10.00;99.90;;;;;;5089321;28;20206;-68
2022/11/03 15:26:17;;;;;;;5.80;5.00;;;10.00;99.90;;;;;;5088875;28;20211;-69
2022/11/03 15:28:44;;;;;;;6.13;4.70;;;10.00;99.90;;;;;;5096710;28;20203;-69
2022/11/03 15:31:11;;;;;;;8.27;6.00;;;9.90;99.90;;;;;;5109646;28;20631;-69
2022/11/03 15:33:37;;;;;;;8.63;6.20;;;10.00;99.90;;;;;;5109559;28;20564;-68
2022/11/03 15:36:06;;;;;;;8.43;6.00;;;10.00;99.90;;;;;;5089563;28;20204;-67
2022/11/03 15:38:34;;;;;;;7.10;5.70;;;9.90;99.90;;;;;;5079295;28;20204;-67
2022/11/03 15:41:15;;;;;;;7.87;5.33;;;10.00;99.90;;;;;;5087741;28;20218;-67
2022/11/03 15:43:42;;;;;;;6.77;4.80;;;9.90;99.90;;;;;;5088020;28;20250;-67
2022/11/03 15:46:09;;;;;;;5.80;4.60;;;10.00;99.90;;;;;;5089115;28;20584;-70
2022/11/03 15:48:36;;;;;;;5.43;4.77;;;9.90;99.90;;;;;;5088135;28;20211;-70
2022/11/03 15:51:03;;;;;;;8.83;5.37;;;9.90;99.90;;;;;;5088884;28;20210;-67
2022/11/03 15:53:29;;;;;;;7.70;5.17;;;9.90;99.90;;;;;;5088574;28;20207;-68
2022/11/03 15:55:58;;;;;;;5.57;4.33;;;9.90;99.90;;;;;;5087709;28;20224;-68
2022/11/03 15:58:24;;;;;;;6.13;4.50;;;9.90;99.90;;;;;;5088179;28;20574;-66
2022/11/03 16:00:51;;;;;;;6.10;4.67;;;9.80;99.90;;;;;;5087361;28;20238;-67
2022/11/03 16:03:18;;;;;;;7.23;4.70;;;9.90;99.90;;;;;;5096460;28;20263;-66
2022/11/03 16:05:45;;;;;;;6.80;5.10;;;9.90;99.90;;;;;;5093050;28;20559;-69
2022/11/03 16:08:12;;;;;;;6.53;5.27;;;9.90;99.90;;;;;;5074808;28;20207;-68
2022/11/03 16:10:38;;;;;;;7.40;5.40;;;9.90;99.90;;;;;;5074616;28;20201;-68
2022/11/03 16:13:06;;;;;;;7.10;5.37;;;9.90;99.90;;;;;;5073709;28;20576;-66
2022/11/03 16:15:33;;;;;;;10.00;6.70;;;9.90;99.90;;;;;;5074769;28;20208;-66
2022/11/03 16:18:01;;;;;;;9.03;5.93;;;9.90;99.90;;;;;;5073321;28;20205;-68
2022/11/03 16:20:28;;;;;;;8.00;6.60;;;9.80;99.90;;;;;;5073446;28;20802;-65
2022/11/03 16:22:55;;;;;;;8.00;6.07;;;9.90;99.90;;;;;;5070772;28;20229;-67
2022/11/03 16:25:22;;;;;;;8.90;6.40;;;9.80;99.90;;;;;;5074468;28;20300;-68
2022/11/03 16:27:51;;;;;;;7.50;6.37;;;9.90;99.90;;;;;;5075181;28;20205;-69
2022/11/03 16:30:20;;;;;;;10.03;6.53;;;9.90;99.90;;;;;;5074691;28;20205;-67
2022/11/03 16:32:51;;;;;;;9.57;6.40;;;9.90;99.90;;;;;;5074034;28;20654;-69
2022/11/03 16:35:18;;;;;;;8.07;6.50;;;9.90;99.90;;;;;;5074025;28;20200;-67
2022/11/03 16:37:45;;;;;;;6.17;5.27;;;9.90;99.90;;;;;;5090411;28;20204;-68
2022/11/03 16:40:13;;;;;;;7.33;5.80;;;9.90;99.90;;;;;;5086912;28;20200;-69
2022/11/03 16:42:39;;;;;;;8.87;6.27;;;9.90;99.90;;;;;;5074209;28;20224;-66
2022/11/03 16:45:13;;;;;;;10.40;6.80;;;9.90;99.90;;;;;;5074385;28;20197;-67
2022/11/03 16:47:41;;;;;;;9.17;7.07;;;9.90;99.90;;;;;;5074560;28;20193;-68
2022/11/03 16:50:08;;;;;;;11.07;7.50;;;9.90;99.90;;;;;;5072519;28;20205;-66
2022/11/03 16:52:35;;;;;;;9.23;7.50;;;9.90;99.90;;;;;;5070715;28;20223;-67
2022/11/03 16:55:02;;;;;;;10.53;7.80;;;9.90;99.90;;;;;;5069980;28;20300;-66
2022/11/03 16:57:29;;;;;;;9.27;7.80;;;9.90;99.90;;;;;;5073926;28;20205;-67
2022/11/03 16:59:56;;;;;;;9.10;7.67;;;9.90;99.90;;;;;;5073791;28;20726;-67
2022/11/03 17:02:23;;;;;;;10.37;8.40;;;9.90;99.90;;;;;;5072728;28;20240;-67
2022/11/03 17:04:51;;;;;;;12.80;8.77;;;9.90;99.90;;;;;;5073773;28;20250;-68
2022/11/03 17:07:18;;;;;;;12.17;9.10;;;10.00;99.90;;;;;;5073876;28;20662;-69
2022/11/03 17:09:45;;;;;;;11.63;8.03;;;10.00;99.90;;;;;;5073747;28;20201;-67
2022/11/03 17:12:11;;;;;;;12.63;8.47;;;10.00;99.90;;;;;;5073818;28;20210;-68
2022/11/03 17:14:38;;;;;;;10.20;7.47;;;10.00;99.90;;;;;;5073743;28;20211;-67
2022/11/03 17:17:05;;;;;;;12.93;9.07;;;10.00;99.90;;;;;;5072531;28;20715;-65
2022/11/03 17:19:32;;;;;;;11.87;7.43;;;10.00;99.90;;;;;;5073200;28;20216;-68
2022/11/03 17:22:00;;;;;;;10.90;7.47;;;10.00;99.90;;;;;;5073466;28;20204;-68
2022/11/03 17:24:27;;;;;;;12.93;8.87;;;10.00;99.90;;;;;;5073846;28;20259;-69
2022/11/03 17:26:57;;;;;;;10.57;8.30;;;10.00;99.90;;;;;;5073832;28;20227;-71
2022/11/03 17:29:34;;;;;;;12.43;9.67;;;10.00;99.90;;;;;;5073841;28;20204;-70
2022/11/03 17:32:02;;;;;;;12.73;9.50;;;10.10;99.90;;;;;;5073722;28;20195;-67
2022/11/03 17:34:29;;;;;;;9.40;7.70;;;10.10;99.90;;;;;;5073381;28;20212;-72
2022/11/03 17:36:57;;;;;;;10.07;7.13;;;10.10;99.90;;;;;;5073846;28;20205;-70
2022/11/03 17:39:29;;;;;;;8.33;6.57;;;10.10;99.90;;;;;;5073306;28;20201;-69
2022/11/03 17:42:07;;;;;;;9.70;7.10;;;10.20;99.90;;;;;;5073515;28;20217;-67
2022/11/03 17:44:33;;;;;;;9.70;6.90;;;10.20;99.90;;;;;;5073272;28;20234;-68
2022/11/03 17:47:00;;;;;;;9.67;7.10;;;10.20;99.90;;;;;;5073363;28;20211;-67
2022/11/03 17:49:27;;;;;;;9.83;7.00;;;10.20;99.90;;;;;;5073299;28;20207;-68
2022/11/03 17:51:54;;;;;;;10.00;7.37;;;10.20;99.90;;;;;;5073343;28;20209;-69
2022/11/03 17:54:21;;;;;;;12.97;7.27;;;10.20;99.90;;;;;;5073203;28;20307;-69
2022/11/03 17:56:49;;;;;;;11.73;8.30;;;10.20;99.90;;;;;;5072534;28;20224;-71
2022/11/03 22:37:38;;;;;;;21.50;12.03;;;9.70;99.90;;;;;;5048723;28;20658;-66
2022/11/03 22:45:54;;;;;;;20.83;11.70;;;9.80;99.90;;;;;;5068460;28;20584;-67
2022/11/03 22:48:22;;;;;;;21.13;11.40;;;9.80;99.90;;;;;;5068972;28;20192;-66
2022/11/03 22:50:56;;;;;;;19.73;10.83;;;9.80;99.90;;;;;;5068245;28;20262;-67
2022/11/03 22:56:08;;;;;;;20.73;11.33;;;9.80;99.90;;;;;;5068714;28;20351;-67
2022/11/03 22:58:35;;;;;;;21.43;11.40;;;9.70;99.90;;;;;;5068207;28;20216;-67
2022/11/03 23:01:06;;;;;;;25.17;12.07;;;9.70;99.90;;;;;;5068385;28;20212;-67
2022/11/03 23:03:34;;;;;;;24.73;13.53;;;9.80;99.90;;;;;;5068246;28;20211;-66
2022/11/03 23:06:03;;;;;;;26.00;12.37;;;9.70;99.90;;;;;;5068005;28;20208;-66
2022/11/03 23:08:31;;;;;;;21.10;11.67;;;9.70;99.90;;;;;;5068357;28;20209;-66
2022/11/03 23:11:07;;;;;;;23.83;11.77;;;9.70;99.90;;;;;;5068214;28;20228;-65
2022/11/03 23:13:34;;;;;;;20.37;11.30;;;9.70;99.90;;;;;;5067917;28;20232;-67
2022/11/03 23:16:00;;;;;;;24.77;12.30;;;9.60;99.90;;;;;;5067724;28;20208;-66
2022/11/03 23:21:13;;;;;;;19.77;12.90;;;9.80;99.90;;;;;;5068049;28;20192;-66
2022/11/03 23:26:30;;;;;;;19.40;11.40;;;9.70;99.90;;;;;;5026006;28;20202;-66
2022/11/03 23:28:57;;;;;;;20.97;11.17;;;9.70;99.90;;;;;;5028013;28;20194;-66
2022/11/03 23:31:23;;;;;;;24.17;11.43;;;9.70;99.90;;;;;;5028192;28;20302;-66
2022/11/03 23:33:50;;;;;;;24.33;12.17;;;9.70;99.90;;;;;;5025176;28;20238;-66
2022/11/03 23:36:18;;;;;;;23.00;11.50;;;9.70;99.90;;;;;;5015043;28;20207;-66
2022/11/03 23:38:45;;;;;;;20.50;11.40;;;9.80;99.90;;;;;;5014858;28;20209;-67
2022/11/03 23:41:14;;;;;;;18.13;10.43;;;9.70;99.90;;;;;;5018468;28;20230;-67
2022/11/03 23:43:42;;;;;;;17.13;10.67;;;9.80;99.90;;;;;;5034724;28;20205;-66
2022/11/03 23:48:54;;;;;;;22.07;10.97;;;9.80;99.90;;;;;;5043653;28;20648;-66
2022/11/03 23:51:25;;;;;;;21.50;11.47;;;9.70;99.90;;;;;;5051818;28;20548;-66
2022/11/03 23:53:53;;;;;;;19.20;10.17;;;9.80;99.90;;;;;;5050219;28;20304;-66
2022/11/03 23:59:08;;;;;;;19.27;10.77;;;9.80;99.90;;;;;;5050329;28;20200;-66
